sensor_id;sensor_type;location;lat;lon;timestamp;pressure;altitude;pressure_sealevel;temperature;humidity
35435;BME280;21556;55.782;37.528;2022-10-16T00:01:11;100978.44;;;6.12;100.00
35435;BME280;21556;55.782;37.528;2022-10-16T00:03:40;100987.31;;;6.15;100.00
35435;BME280;21556;55.782;37.528;2022-10-16T00:06:08;100987.25;;;6.14;100.00
35435;BME280;21556;55.782;37.528;2022-10-16T00:08:36;100990.34;;;6.23;100.00
35435;BME280;21556;55.782;37.528;2022-10-16T00:11:12;100984.38;;;6.09;100.00
35435;BME280;21556;55.782;37.528;2022-10-16T00:13:39;100993.91;;;6.09;100.00
35435;BME280;21556;55.782;37.528;2022-10-16T00:16:06;100994.53;;;6.36;100.00
35435;BME280;21556;55.782;37.528;2022-10-16T00:18:33;100992.94;;;6.23;100.00
35435;BME280;21556;55.782;37.528;2022-10-16T00:21:20;100991.06;;;6.20;100.00
35435;BME280;21556;55.782;37.528;2022-10-16T00:24:07;101001.38;;;6.02;100.00
35435;BME280;21556;55.782;37.528;2022-10-16T00:26:35;101001.06;;;6.13;100.00
35435;BME280;21556;55.782;37.528;2022-10-16T00:29:02;100993.66;;;6.04;100.00
35435;BME280;21556;55.782;37.528;2022-10-16T00:31:29;101005.63;;;6.00;100.00
35435;BME280;21556;55.782;37.528;2022-10-16T00:33:55;101000.94;;;5.95;100.00
35435;BME280;21556;55.782;37.528;2022-10-16T00:36:23;101002.66;;;5.94;100.00
35435;BME280;21556;55.782;37.528;2022-10-16T00:38:55;101003.91;;;5.86;100.00
35435;BME280;21556;55.782;37.528;2022-10-16T00:41:24;101006.59;;;5.88;100.00
35435;BME280;21556;55.782;37.528;2022-10-16T00:43:53;101004.16;;;5.91;100.00
35435;BME280;21556;55.782;37.528;2022-10-16T00:46:39;101004.66;;;5.69;100.00
35435;BME280;21556;55.782;37.528;2022-10-16T00:49:12;101009.53;;;5.77;100.00
35435;BME280;21556;55.782;37.528;2022-10-16T00:51:42;101008.94;;;5.83;100.00
35435;BME280;21556;55.782;37.528;2022-10-16T00:54:13;101006.91;;;5.92;100.00
35435;BME280;21556;55.782;37.528;2022-10-16T00:56:41;101015.78;;;5.96;100.00
35435;BME280;21556;55.782;37.528;2022-10-16T00:59:15;101014.88;;;5.95;100.00
35435;BME280;21556;55.782;37.528;2022-10-16T01:01:41;101015.66;;;6.09;100.00
35435;BME280;21556;55.782;37.528;2022-10-16T01:04:07;101015.56;;;6.08;100.00
35435;BME280;21556;55.782;37.528;2022-10-16T01:06:39;101018.72;;;6.02;100.00
35435;BME280;21556;55.782;37.528;2022-10-16T01:09:14;101023.50;;;5.94;100.00
35435;BME280;21556;55.782;37.528;2022-10-16T01:11:57;101015.50;;;5.76;100.00
35435;BME280;21556;55.782;37.528;2022-10-16T01:14:39;101019.38;;;5.83;100.00
35435;BME280;21556;55.782;37.528;2022-10-16T01:17:13;101019.53;;;5.86;100.00
35435;BME280;21556;55.782;37.528;2022-10-16T01:22:14;101030.78;;;5.85;100.00
35435;BME280;21556;55.782;37.528;2022-10-16T01:24:45;101028.88;;;5.97;100.00
35435;BME280;21556;55.782;37.528;2022-10-16T01:32:40;101032.56;;;5.86;100.00
35435;BME280;21556;55.782;37.528;2022-10-16T01:35:25;101036.25;;;5.90;100.00
35435;BME280;21556;55.782;37.528;2022-10-16T01:40:24;101038.31;;;5.95;100.00
35435;BME280;21556;55.782;37.528;2022-10-16T01:43:33;101032.81;;;5.91;100.00
35435;BME280;21556;55.782;37.528;2022-10-16T01:45:57;101033.03;;;5.79;100.00
35435;BME280;21556;55.782;37.528;2022-10-16T01:48:24;101032.13;;;5.78;100.00
35435;BME280;21556;55.782;37.528;2022-10-16T01:51:12;101037.25;;;5.77;100.00
35435;BME280;21556;55.782;37.528;2022-10-16T01:53:39;101032.59;;;5.71;100.00
35435;BME280;21556;55.782;37.528;2022-10-16T01:56:09;101035.56;;;5.77;100.00
35435;BME280;21556;55.782;37.528;2022-10-16T01:58:41;101034.81;;;5.80;100.00
35435;BME280;21556;55.782;37.528;2022-10-16T02:01:11;101032.03;;;5.77;100.00
35435;BME280;21556;55.782;37.528;2022-10-16T02:03:42;101036.88;;;5.86;100.00
35435;BME280;21556;55.782;37.528;2022-10-16T02:06:11;101039.38;;;5.84;100.00
35435;BME280;21556;55.782;37.528;2022-10-16T02:08:37;101040.03;;;5.80;100.00
35435;BME280;21556;55.782;37.528;2022-10-16T02:11:06;101042.81;;;5.83;100.00
35435;BME280;21556;55.782;37.528;2022-10-16T02:14:02;101039.84;;;5.77;100.00
35435;BME280;21556;55.782;37.528;2022-10-16T02:16:34;101038.06;;;5.76;100.00
35435;BME280;21556;55.782;37.528;2022-10-16T02:19:01;101035.03;;;5.68;100.00
35435;BME280;21556;55.782;37.528;2022-10-16T02:21:30;101036.03;;;5.41;100.00
35435;BME280;21556;55.782;37.528;2022-10-16T02:30:11;101045.38;;;5.67;100.00
35435;BME280;21556;55.782;37.528;2022-10-16T02:32:41;101042.22;;;5.43;100.00
35435;BME280;21556;55.782;37.528;2022-10-16T02:35:08;101046.53;;;5.42;100.00
35435;BME280;21556;55.782;37.528;2022-10-16T02:37:35;101045.81;;;5.45;100.00
35435;BME280;21556;55.782;37.528;2022-10-16T02:40:02;101039.53;;;5.56;100.00
35435;BME280;21556;55.782;37.528;2022-10-16T02:42:36;101056.66;;;5.67;100.00
35435;BME280;21556;55.782;37.528;2022-10-16T02:45:06;101048.44;;;5.60;100.00
35435;BME280;21556;55.782;37.528;2022-10-16T02:47:34;101054.16;;;5.54;100.00
35435;BME280;21556;55.782;37.528;2022-10-16T02:50:03;101046.16;;;5.51;100.00
35435;BME280;21556;55.782;37.528;2022-10-16T02:52:30;101051.81;;;5.59;100.00
35435;BME280;21556;55.782;37.528;2022-10-16T02:54:56;101052.34;;;5.68;100.00
35435;BME280;21556;55.782;37.528;2022-10-16T02:57:22;101053.25;;;5.68;100.00
35435;BME280;21556;55.782;37.528;2022-10-16T02:59:48;101052.44;;;5.69;100.00
35435;BME280;21556;55.782;37.528;2022-10-16T03:02:14;101048.94;;;5.69;100.00
35435;BME280;21556;55.782;37.528;2022-10-16T03:04:40;101050.72;;;5.70;100.00
35435;BME280;21556;55.782;37.528;2022-10-16T03:07:06;101058.41;;;5.52;100.00
35435;BME280;21556;55.782;37.528;2022-10-16T03:09:33;101061.34;;;5.58;100.00
35435;BME280;21556;55.782;37.528;2022-10-16T03:12:00;101062.69;;;5.51;100.00
35435;BME280;21556;55.782;37.528;2022-10-16T03:14:25;101066.47;;;5.42;100.00
35435;BME280;21556;55.782;37.528;2022-10-16T03:16:54;101063.41;;;5.49;100.00
35435;BME280;21556;55.782;37.528;2022-10-16T03:19:20;101069.41;;;5.48;100.00
35435;BME280;21556;55.782;37.528;2022-10-16T03:21:45;101065.56;;;5.56;100.00
35435;BME280;21556;55.782;37.528;2022-10-16T03:24:14;101067.09;;;5.52;100.00
35435;BME280;21556;55.782;37.528;2022-10-16T03:26:41;101068.63;;;5.49;100.00
35435;BME280;21556;55.782;37.528;2022-10-16T03:29:07;101067.53;;;5.45;100.00
35435;BME280;21556;55.782;37.528;2022-10-16T03:31:33;101073.66;;;5.46;100.00
35435;BME280;21556;55.782;37.528;2022-10-16T03:33:58;101077.06;;;5.45;100.00
35435;BME280;21556;55.782;37.528;2022-10-16T03:36:27;101078.47;;;5.40;100.00
35435;BME280;21556;55.782;37.528;2022-10-16T03:38:53;101076.59;;;5.37;100.00
35435;BME280;21556;55.782;37.528;2022-10-16T03:41:19;101076.06;;;5.28;100.00
35435;BME280;21556;55.782;37.528;2022-10-16T03:43:45;101081.34;;;5.29;100.00
35435;BME280;21556;55.782;37.528;2022-10-16T03:46:11;101078.66;;;5.28;100.00
35435;BME280;21556;55.782;37.528;2022-10-16T03:48:38;101075.94;;;5.26;100.00
35435;BME280;21556;55.782;37.528;2022-10-16T03:51:05;101078.53;;;5.26;100.00
35435;BME280;21556;55.782;37.528;2022-10-16T03:53:32;101083.94;;;5.29;100.00
35435;BME280;21556;55.782;37.528;2022-10-16T03:55:58;101077.50;;;5.23;100.00
35435;BME280;21556;55.782;37.528;2022-10-16T03:58:23;101082.78;;;5.24;100.00
35435;BME280;21556;55.782;37.528;2022-10-16T04:00:49;101074.69;;;5.05;100.00
35435;BME280;21556;55.782;37.528;2022-10-16T04:03:15;101081.13;;;5.12;100.00
35435;BME280;21556;55.782;37.528;2022-10-16T04:05:41;101083.13;;;5.16;100.00
35435;BME280;21556;55.782;37.528;2022-10-16T04:08:07;101086.41;;;4.98;100.00
35435;BME280;21556;55.782;37.528;2022-10-16T04:10:36;101087.13;;;4.96;100.00
35435;BME280;21556;55.782;37.528;2022-10-16T04:13:02;101081.28;;;5.00;100.00
35435;BME280;21556;55.782;37.528;2022-10-16T04:15:28;101084.78;;;5.00;100.00
35435;BME280;21556;55.782;37.528;2022-10-16T04:17:54;101081.13;;;5.12;100.00
35435;BME280;21556;55.782;37.528;2022-10-16T04:20:20;101090.22;;;5.18;100.00
35435;BME280;21556;55.782;37.528;2022-10-16T04:22:45;101090.84;;;5.14;100.00
35435;BME280;21556;55.782;37.528;2022-10-16T04:25:13;101092.03;;;5.19;100.00
35435;BME280;21556;55.782;37.528;2022-10-16T04:27:39;101090.41;;;5.21;100.00
35435;BME280;21556;55.782;37.528;2022-10-16T04:30:06;101093.53;;;5.16;100.00
35435;BME280;21556;55.782;37.528;2022-10-16T04:32:32;101089.22;;;5.01;100.00
35435;BME280;21556;55.782;37.528;2022-10-16T04:34:58;101096.25;;;4.89;100.00
35435;BME280;21556;55.782;37.528;2022-10-16T04:37:25;101093.22;;;4.96;100.00
35435;BME280;21556;55.782;37.528;2022-10-16T04:39:51;101096.91;;;5.00;100.00
35435;BME280;21556;55.782;37.528;2022-10-16T04:42:17;101093.53;;;5.16;100.00
35435;BME280;21556;55.782;37.528;2022-10-16T04:44:46;101094.94;;;5.11;100.00
35435;BME280;21556;55.782;37.528;2022-10-16T04:47:13;101101.88;;;5.10;100.00
35435;BME280;21556;55.782;37.528;2022-10-16T04:49:39;101103.84;;;5.14;100.00
35435;BME280;21556;55.782;37.528;2022-10-16T04:52:06;101097.75;;;5.14;100.00
35435;BME280;21556;55.782;37.528;2022-10-16T04:54:31;101104.84;;;5.16;100.00
35435;BME280;21556;55.782;37.528;2022-10-16T04:56:58;101107.56;;;5.04;100.00
35435;BME280;21556;55.782;37.528;2022-10-16T04:59:24;101116.16;;;5.17;100.00
35435;BME280;21556;55.782;37.528;2022-10-16T05:01:50;101110.06;;;5.16;100.00
35435;BME280;21556;55.782;37.528;2022-10-16T05:04:16;101110.13;;;5.18;100.00
35435;BME280;21556;55.782;37.528;2022-10-16T05:06:42;101111.00;;;5.03;100.00
35435;BME280;21556;55.782;37.528;2022-10-16T05:09:09;101111.19;;;5.06;100.00
35435;BME280;21556;55.782;37.528;2022-10-16T05:11:37;101120.22;;;4.98;100.00
35435;BME280;21556;55.782;37.528;2022-10-16T05:14:02;101110.56;;;5.11;100.00
35435;BME280;21556;55.782;37.528;2022-10-16T05:16:28;101112.19;;;5.09;100.00
35435;BME280;21556;55.782;37.528;2022-10-16T05:19:01;101106.25;;;5.11;100.00
35435;BME280;21556;55.782;37.528;2022-10-16T05:21:30;101111.13;;;5.20;100.00
35435;BME280;21556;55.782;37.528;2022-10-16T05:23:58;101105.22;;;5.37;100.00
35435;BME280;21556;55.782;37.528;2022-10-16T05:26:24;101114.34;;;5.16;100.00
35435;BME280;21556;55.782;37.528;2022-10-16T05:28:50;101102.97;;;5.73;100.00
35435;BME280;21556;55.782;37.528;2022-10-16T05:31:17;101113.19;;;6.29;100.00
35435;BME280;21556;55.782;37.528;2022-10-16T05:33:44;101106.25;;;7.42;100.00
35435;BME280;21556;55.782;37.528;2022-10-16T05:36:10;101104.81;;;7.83;100.00
35435;BME280;21556;55.782;37.528;2022-10-16T05:38:37;101102.69;;;8.46;100.00
35435;BME280;21556;55.782;37.528;2022-10-16T05:41:04;101095.88;;;9.47;100.00
35435;BME280;21556;55.782;37.528;2022-10-16T05:43:30;101097.94;;;9.54;100.00
35435;BME280;21556;55.782;37.528;2022-10-16T05:46:00;101102.22;;;10.15;100.00
35435;BME280;21556;55.782;37.528;2022-10-16T05:48:27;101100.63;;;10.62;100.00
35435;BME280;21556;55.782;37.528;2022-10-16T05:50:58;101096.91;;;11.03;100.00
35435;BME280;21556;55.782;37.528;2022-10-16T05:53:24;101105.78;;;11.06;100.00
35435;BME280;21556;55.782;37.528;2022-10-16T05:55:55;101092.44;;;11.24;100.00
35435;BME280;21556;55.782;37.528;2022-10-16T05:58:23;101098.22;;;12.16;94.41
35435;BME280;21556;55.782;37.528;2022-10-16T06:03:20;101102.16;;;12.29;86.79
35435;BME280;21556;55.782;37.528;2022-10-16T06:05:46;101097.22;;;12.40;83.14
35435;BME280;21556;55.782;37.528;2022-10-16T06:08:13;101104.06;;;11.80;92.24
35435;BME280;21556;55.782;37.528;2022-10-16T06:10:41;101102.44;;;12.67;83.21
35435;BME280;21556;55.782;37.528;2022-10-16T06:13:07;101099.84;;;11.86;87.23
35435;BME280;21556;55.782;37.528;2022-10-16T06:15:34;101112.34;;;11.18;95.26
35435;BME280;21556;55.782;37.528;2022-10-16T06:18:00;101108.63;;;10.89;100.00
35435;BME280;21556;55.782;37.528;2022-10-16T06:20:26;101118.69;;;10.54;100.00
35435;BME280;21556;55.782;37.528;2022-10-16T06:22:52;101112.31;;;10.47;100.00
35435;BME280;21556;55.782;37.528;2022-10-16T06:25:20;101118.81;;;10.57;100.00
35435;BME280;21556;55.782;37.528;2022-10-16T06:27:46;101116.66;;;10.69;100.00
35435;BME280;21556;55.782;37.528;2022-10-16T06:30:13;101111.00;;;11.05;100.00
35435;BME280;21556;55.782;37.528;2022-10-16T06:32:40;101116.78;;;10.72;100.00
35435;BME280;21556;55.782;37.528;2022-10-16T06:35:06;101105.97;;;11.35;99.97
35435;BME280;21556;55.782;37.528;2022-10-16T06:37:32;101112.22;;;11.15;100.00
35435;BME280;21556;55.782;37.528;2022-10-16T06:39:58;101113.94;;;12.13;89.00
35435;BME280;21556;55.782;37.528;2022-10-16T06:42:24;101116.97;;;11.25;96.25
35435;BME280;21556;55.782;37.528;2022-10-16T06:44:50;101109.22;;;12.03;90.03
35435;BME280;21556;55.782;37.528;2022-10-16T06:47:15;101114.56;;;11.80;91.20
35435;BME280;21556;55.782;37.528;2022-10-16T06:49:41;101109.44;;;11.34;90.02
35435;BME280;21556;55.782;37.528;2022-10-16T06:52:07;101118.00;;;11.04;97.87
35435;BME280;21556;55.782;37.528;2022-10-16T06:54:33;101127.78;;;10.41;100.00
35435;BME280;21556;55.782;37.528;2022-10-16T06:56:59;101119.38;;;10.06;100.00
35435;BME280;21556;55.782;37.528;2022-10-16T06:59:25;101128.94;;;9.64;100.00
35435;BME280;21556;55.782;37.528;2022-10-16T07:01:51;101125.56;;;9.47;100.00
35435;BME280;21556;55.782;37.528;2022-10-16T07:04:17;101131.59;;;9.06;100.00
35435;BME280;21556;55.782;37.528;2022-10-16T07:06:43;101137.94;;;9.11;100.00
35435;BME280;21556;55.782;37.528;2022-10-16T07:09:10;101129.56;;;8.61;100.00
35435;BME280;21556;55.782;37.528;2022-10-16T07:11:38;101137.38;;;8.79;100.00
35435;BME280;21556;55.782;37.528;2022-10-16T07:14:05;101129.63;;;8.63;100.00
35435;BME280;21556;55.782;37.528;2022-10-16T07:16:34;101134.66;;;8.40;100.00
35435;BME280;21556;55.782;37.528;2022-10-16T07:19:01;101133.03;;;8.42;100.00
35435;BME280;21556;55.782;37.528;2022-10-16T07:21:31;101134.16;;;8.31;100.00
35435;BME280;21556;55.782;37.528;2022-10-16T07:24:01;101134.50;;;8.55;100.00
35435;BME280;21556;55.782;37.528;2022-10-16T07:26:29;101136.13;;;8.53;100.00
35435;BME280;21556;55.782;37.528;2022-10-16T07:28:55;101136.00;;;8.32;100.00
35435;BME280;21556;55.782;37.528;2022-10-16T07:31:23;101142.34;;;8.55;100.00
35435;BME280;21556;55.782;37.528;2022-10-16T07:33:50;101138.13;;;8.77;100.00
35435;BME280;21556;55.782;37.528;2022-10-16T07:36:18;101133.06;;;8.99;100.00
35435;BME280;21556;55.782;37.528;2022-10-16T07:38:44;101130.91;;;9.49;100.00
35435;BME280;21556;55.782;37.528;2022-10-16T07:41:18;101132.16;;;10.63;100.00
35435;BME280;21556;55.782;37.528;2022-10-16T07:43:48;101125.38;;;11.64;100.00
35435;BME280;21556;55.782;37.528;2022-10-16T07:46:17;101126.22;;;12.41;91.77
35435;BME280;21556;55.782;37.528;2022-10-16T07:48:44;101118.09;;;12.91;78.55
35435;BME280;21556;55.782;37.528;2022-10-16T07:51:16;101118.78;;;12.85;78.56
35435;BME280;21556;55.782;37.528;2022-10-16T07:53:42;101130.34;;;12.60;79.04
35435;BME280;21556;55.782;37.528;2022-10-16T07:56:08;101119.34;;;12.18;89.34
35435;BME280;21556;55.782;37.528;2022-10-16T07:58:35;101121.06;;;13.03;82.74
35435;BME280;21556;55.782;37.528;2022-10-16T08:01:14;101121.72;;;13.56;74.39
35435;BME280;21556;55.782;37.528;2022-10-16T08:03:51;101124.53;;;13.00;76.85
35435;BME280;21556;55.782;37.528;2022-10-16T08:06:19;101126.78;;;12.88;78.82
35435;BME280;21556;55.782;37.528;2022-10-16T08:08:48;101120.13;;;13.94;71.75
35435;BME280;21556;55.782;37.528;2022-10-16T08:11:14;101115.94;;;14.04;67.75
35435;BME280;21556;55.782;37.528;2022-10-16T08:13:41;101114.97;;;14.37;67.20
35435;BME280;21556;55.782;37.528;2022-10-16T08:16:07;101109.66;;;14.72;61.74
35435;BME280;21556;55.782;37.528;2022-10-16T08:18:34;101114.53;;;14.18;65.04
35435;BME280;21556;55.782;37.528;2022-10-16T08:21:03;101105.81;;;14.59;62.19
35435;BME280;21556;55.782;37.528;2022-10-16T08:23:54;101110.94;;;14.15;64.61
35435;BME280;21556;55.782;37.528;2022-10-16T08:26:21;101110.69;;;14.80;62.75
35435;BME280;21556;55.782;37.528;2022-10-16T08:28:50;101121.75;;;14.26;63.32
35435;BME280;21556;55.782;37.528;2022-10-16T08:31:16;101110.66;;;14.04;62.05
35435;BME280;21556;55.782;37.528;2022-10-16T08:33:44;101110.56;;;15.14;57.31
35435;BME280;21556;55.782;37.528;2022-10-16T08:36:14;101093.97;;;15.22;55.14
35435;BME280;21556;55.782;37.528;2022-10-16T08:38:41;101101.88;;;15.66;56.07
35435;BME280;21556;55.782;37.528;2022-10-16T08:41:50;101116.00;;;15.24;57.54
35435;BME280;21556;55.782;37.528;2022-10-16T08:47:22;101108.28;;;14.89;58.22
35435;BME280;21556;55.782;37.528;2022-10-16T08:49:59;101101.09;;;14.85;58.17
35435;BME280;21556;55.782;37.528;2022-10-16T08:52:34;101100.97;;;15.65;55.81
35435;BME280;21556;55.782;37.528;2022-10-16T08:55:05;101111.69;;;14.47;59.28
35435;BME280;21556;55.782;37.528;2022-10-16T08:57:35;101098.81;;;15.46;56.28
35435;BME280;21556;55.782;37.528;2022-10-16T09:00:12;101103.81;;;14.86;59.74
35435;BME280;21556;55.782;37.528;2022-10-16T09:02:49;101090.44;;;15.67;54.39
35435;BME280;21556;55.782;37.528;2022-10-16T09:11:47;101091.03;;;16.61;49.02
35435;BME280;21556;55.782;37.528;2022-10-16T09:18:09;101087.56;;;16.65;47.36
35435;BME280;21556;55.782;37.528;2022-10-16T09:22:37;101084.50;;;16.37;50.10
35435;BME280;21556;55.782;37.528;2022-10-16T09:25:17;101081.34;;;16.02;50.16
35435;BME280;21556;55.782;37.528;2022-10-16T09:27:48;101084.75;;;16.54;49.89
35435;BME280;21556;55.782;37.528;2022-10-16T09:30:21;101083.69;;;17.05;46.42
35435;BME280;21556;55.782;37.528;2022-10-16T09:32:50;101070.31;;;17.75;43.99
35435;BME280;21556;55.782;37.528;2022-10-16T09:35:22;101085.97;;;16.76;45.43
35435;BME280;21556;55.782;37.528;2022-10-16T09:37:54;101082.25;;;16.65;47.78
35435;BME280;21556;55.782;37.528;2022-10-16T09:43:35;101084.72;;;16.50;47.07
35435;BME280;21556;55.782;37.528;2022-10-16T09:45:53;101074.78;;;16.35;45.80
35435;BME280;21556;55.782;37.528;2022-10-16T09:48:20;101079.38;;;16.47;45.51
35435;BME280;21556;55.782;37.528;2022-10-16T09:50:56;101076.59;;;17.00;43.48
35435;BME280;21556;55.782;37.528;2022-10-16T09:53:23;101061.84;;;16.56;43.24
35435;BME280;21556;55.782;37.528;2022-10-16T09:55:52;101063.75;;;16.68;43.60
35435;BME280;21556;55.782;37.528;2022-10-16T09:58:23;101059.34;;;16.67;43.22
35435;BME280;21556;55.782;37.528;2022-10-16T10:00:53;101065.22;;;16.46;43.34
35435;BME280;21556;55.782;37.528;2022-10-16T10:03:41;101059.56;;;16.84;43.34
35435;BME280;21556;55.782;37.528;2022-10-16T10:06:27;101057.91;;;16.91;42.53
35435;BME280;21556;55.782;37.528;2022-10-16T10:09:04;101062.53;;;17.95;40.89
35435;BME280;21556;55.782;37.528;2022-10-16T10:11:42;101069.00;;;17.35;41.23
35435;BME280;21556;55.782;37.528;2022-10-16T10:14:34;101048.78;;;16.72;41.66
35435;BME280;21556;55.782;37.528;2022-10-16T10:22:29;101063.75;;;16.68;42.89
35435;BME280;21556;55.782;37.528;2022-10-16T10:25:14;101047.38;;;16.97;41.99
35435;BME280;21556;55.782;37.528;2022-10-16T10:31:12;101059.19;;;17.25;42.56
35435;BME280;21556;55.782;37.528;2022-10-16T10:34:00;101045.38;;;17.58;40.38
35435;BME280;21556;55.782;37.528;2022-10-16T10:36:37;101049.63;;;17.41;41.30
35435;BME280;21556;55.782;37.528;2022-10-16T10:39:27;101036.94;;;17.11;42.58
35435;BME280;21556;55.782;37.528;2022-10-16T10:42:12;101061.88;;;17.29;41.34
35435;BME280;21556;55.782;37.528;2022-10-16T10:47:42;101066.44;;;15.59;45.76
35435;BME280;21556;55.782;37.528;2022-10-16T10:55:58;101059.25;;;15.05;48.82
35435;BME280;21556;55.782;37.528;2022-10-16T11:04:15;101062.81;;;14.27;52.50
35435;BME280;21556;55.782;37.528;2022-10-16T11:06:55;101052.81;;;14.50;53.06
35435;BME280;21556;55.782;37.528;2022-10-16T11:09:31;101059.22;;;14.61;52.39
35435;BME280;21556;55.782;37.528;2022-10-16T11:12:21;101056.25;;;14.47;52.57
35435;BME280;21556;55.782;37.528;2022-10-16T11:17:54;101051.50;;;14.32;55.05
35435;BME280;21556;55.782;37.528;2022-10-16T11:20:23;101064.88;;;14.02;57.41
35435;BME280;21556;55.782;37.528;2022-10-16T11:22:58;101050.69;;;14.35;56.08
35435;BME280;21556;55.782;37.528;2022-10-16T11:25:28;101051.69;;;14.40;55.01
35435;BME280;21556;55.782;37.528;2022-10-16T11:28:14;101049.25;;;14.11;55.98
35435;BME280;21556;55.782;37.528;2022-10-16T11:31:05;101047.44;;;14.09;56.23
35435;BME280;21556;55.782;37.528;2022-10-16T11:33:46;101053.38;;;13.99;57.59
35435;BME280;21556;55.782;37.528;2022-10-16T11:39:31;101042.22;;;13.76;59.98
35435;BME280;21556;55.782;37.528;2022-10-16T11:42:22;101046.09;;;13.90;60.27
35435;BME280;21556;55.782;37.528;2022-10-16T11:45:27;101040.78;;;13.54;61.91
35435;BME280;21556;55.782;37.528;2022-10-16T11:48:32;101048.47;;;13.44;65.30
35435;BME280;21556;55.782;37.528;2022-10-16T11:51:25;101034.03;;;13.63;60.71
35435;BME280;21556;55.782;37.528;2022-10-16T11:54:04;101036.25;;;13.83;60.07
35435;BME280;21556;55.782;37.528;2022-10-16T11:56:37;101030.41;;;13.58;62.01
35435;BME280;21556;55.782;37.528;2022-10-16T12:07:43;101051.44;;;13.91;60.92
35435;BME280;21556;55.782;37.528;2022-10-16T12:10:28;101044.69;;;13.68;61.05
35435;BME280;21556;55.782;37.528;2022-10-16T12:12:55;101041.31;;;13.73;60.49
35435;BME280;21556;55.782;37.528;2022-10-16T12:15:28;101041.66;;;13.53;61.87
35435;BME280;21556;55.782;37.528;2022-10-16T12:18:00;101033.72;;;13.51;62.97
35435;BME280;21556;55.782;37.528;2022-10-16T12:20:34;101025.66;;;13.45;64.24
35435;BME280;21556;55.782;37.528;2022-10-16T12:23:06;101024.25;;;13.59;63.62
35435;BME280;21556;55.782;37.528;2022-10-16T12:25:37;101022.75;;;13.69;63.46
35435;BME280;21556;55.782;37.528;2022-10-16T12:28:19;101024.00;;;13.85;61.47
35435;BME280;21556;55.782;37.528;2022-10-16T12:30:54;101022.94;;;13.77;62.94
35435;BME280;21556;55.782;37.528;2022-10-16T12:33:30;101024.91;;;13.87;61.93
35435;BME280;21556;55.782;37.528;2022-10-16T12:35:58;101019.19;;;13.68;61.09
35435;BME280;21556;55.782;37.528;2022-10-16T12:38:49;101025.50;;;13.73;60.91
35435;BME280;21556;55.782;37.528;2022-10-16T12:41:43;101016.19;;;13.53;61.47
35435;BME280;21556;55.782;37.528;2022-10-16T12:44:24;101012.22;;;13.36;65.20
35435;BME280;21556;55.782;37.528;2022-10-16T12:46:51;101017.06;;;13.54;62.99
35435;BME280;21556;55.782;37.528;2022-10-16T12:49:23;101016.19;;;13.53;64.00
35435;BME280;21556;55.782;37.528;2022-10-16T12:51:55;101012.22;;;13.69;61.80
35435;BME280;21556;55.782;37.528;2022-10-16T13:00:24;101013.53;;;13.53;62.81
35435;BME280;21556;55.782;37.528;2022-10-16T13:06:05;101014.59;;;13.60;61.79
35435;BME280;21556;55.782;37.528;2022-10-16T13:09:04;101016.09;;;13.50;62.68
35435;BME280;21556;55.782;37.528;2022-10-16T13:11:57;101015.38;;;13.22;65.23
35435;BME280;21556;55.782;37.528;2022-10-16T13:20:21;101021.25;;;13.14;66.01
35435;BME280;21556;55.782;37.528;2022-10-16T13:23:15;101029.22;;;12.84;68.87
35435;BME280;21556;55.782;37.528;2022-10-16T13:26:02;101017.81;;;12.85;70.44
35435;BME280;21556;55.782;37.528;2022-10-16T13:28:33;101013.69;;;12.93;69.78
35435;BME280;21556;55.782;37.528;2022-10-16T13:31:01;101012.84;;;12.95;70.79
35435;BME280;21556;55.782;37.528;2022-10-16T13:33:39;101009.69;;;13.07;68.31
35435;BME280;21556;55.782;37.528;2022-10-16T13:36:44;101023.28;;;12.91;70.24
35435;BME280;21556;55.782;37.528;2022-10-16T13:40:01;101018.94;;;12.93;70.10
35435;BME280;21556;55.782;37.528;2022-10-16T13:42:30;101013.16;;;13.06;68.93
35435;BME280;21556;55.782;37.528;2022-10-16T13:45:30;101020.84;;;12.98;70.03
35435;BME280;21556;55.782;37.528;2022-10-16T13:48:12;101008.41;;;12.93;68.81
35435;BME280;21556;55.782;37.528;2022-10-16T13:50:38;101004.75;;;12.88;69.29
35435;BME280;21556;55.782;37.528;2022-10-16T13:53:06;101004.88;;;12.92;69.46
35435;BME280;21556;55.782;37.528;2022-10-16T13:55:32;101004.72;;;12.86;69.76
35435;BME280;21556;55.782;37.528;2022-10-16T13:58:11;101002.03;;;12.85;70.66
35435;BME280;21556;55.782;37.528;2022-10-16T14:00:39;101009.78;;;12.79;70.95
35435;BME280;21556;55.782;37.528;2022-10-16T14:03:11;101006.72;;;12.65;73.08
35435;BME280;21556;55.782;37.528;2022-10-16T14:05:48;101018.28;;;12.70;73.56
35435;BME280;21556;55.782;37.528;2022-10-16T14:08:18;101014.44;;;12.59;75.37
35435;BME280;21556;55.782;37.528;2022-10-16T14:10:57;101010.06;;;12.59;76.92
35435;BME280;21556;55.782;37.528;2022-10-16T14:13:34;101018.84;;;12.60;77.01
35435;BME280;21556;55.782;37.528;2022-10-16T14:16:07;101018.63;;;12.52;78.56
35435;BME280;21556;55.782;37.528;2022-10-16T14:18:46;101012.69;;;12.29;82.19
35435;BME280;21556;55.782;37.528;2022-10-16T14:21:14;101014.91;;;12.45;80.91
35435;BME280;21556;55.782;37.528;2022-10-16T14:23:45;101011.56;;;12.49;80.13
35435;BME280;21556;55.782;37.528;2022-10-16T14:26:14;101014.84;;;12.42;80.73
35435;BME280;21556;55.782;37.528;2022-10-16T14:28:45;101008.75;;;12.45;81.43
35435;BME280;21556;55.782;37.528;2022-10-16T14:31:29;101013.25;;;12.47;80.76
35435;BME280;21556;55.782;37.528;2022-10-16T14:33:58;101018.28;;;12.40;81.57